createdAt,value
2017-11-07T00:02:04.835Z,7.97
2017-11-07T00:04:34.118Z,7.99
2017-11-07T00:07:02.515Z,7.93
2017-11-07T00:09:30.893Z,7.91
2017-11-07T00:11:59.528Z,7.57
2017-11-07T00:14:27.882Z,7.59
2017-11-07T00:16:56.222Z,7.66
2017-11-07T00:19:24.640Z,7.60
2017-11-07T00:21:52.981Z,7.62
2017-11-07T00:24:21.571Z,7.56
2017-11-07T00:26:49.949Z,7.66
2017-11-07T00:29:18.312Z,7.55
2017-11-07T00:31:47.417Z,7.41
2017-11-07T00:34:15.835Z,7.59
2017-11-07T00:36:44.176Z,7.73
2017-11-07T00:39:13.811Z,7.83
2017-11-07T00:41:43.160Z,7.64
2017-11-07T00:44:12.288Z,7.27
2017-11-07T00:46:40.634Z,7.08
2017-11-07T00:49:09.786Z,7.29
2017-11-07T00:51:38.883Z,7.62
2017-11-07T00:54:07.228Z,7.53
2017-11-07T00:56:36.498Z,7.82
2017-11-07T00:59:04.859Z,8.09
2017-11-07T01:01:34.081Z,7.96
2017-11-07T01:04:02.454Z,7.81
2017-11-07T01:06:30.802Z,7.59
2017-11-07T01:09:00.076Z,7.73
2017-11-07T01:11:28.650Z,7.75
2017-11-07T01:13:56.994Z,7.56
2017-11-07T01:16:25.990Z,7.80
2017-11-07T01:18:55.151Z,7.84
2017-11-07T01:21:24.445Z,7.55
2017-11-07T01:23:52.802Z,7.64
2017-11-07T01:26:21.312Z,7.71
2017-11-07T01:28:49.684Z,7.71
2017-11-07T01:31:18.962Z,7.75
2017-11-07T01:33:49.726Z,7.55
2017-11-07T01:36:19.659Z,7.36
2017-11-07T01:38:48.030Z,7.35
2017-11-07T01:41:16.577Z,7.42
2017-11-07T01:43:44.935Z,7.69
2017-11-07T01:46:14.047Z,7.87
2017-11-07T01:48:42.414Z,7.42
2017-11-07T01:51:10.997Z,7.29
2017-11-07T01:53:39.343Z,7.31
2017-11-07T01:56:07.899Z,7.26
2017-11-07T01:58:37.173Z,7.46
2017-11-07T02:01:06.300Z,7.77
2017-11-07T02:03:34.738Z,7.75
2017-11-07T02:06:04.478Z,7.68
2017-11-07T02:08:32.846Z,7.63
2017-11-07T02:11:01.203Z,7.40
2017-11-07T02:13:31.166Z,7.43
2017-11-07T02:15:59.529Z,7.47
2017-11-07T02:18:28.489Z,7.37
2017-11-07T02:20:57.605Z,7.18
2017-11-07T02:23:26.968Z,7.16
2017-11-07T02:25:55.702Z,7.24
2017-11-07T02:28:24.069Z,7.43
2017-11-07T02:30:53.195Z,7.61
2017-11-07T02:33:22.460Z,7.54
2017-11-07T02:35:51.630Z,7.70
2017-11-07T02:38:20.485Z,7.46
2017-11-07T02:40:50.276Z,7.81
2017-11-07T02:43:19.148Z,7.78
2017-11-07T02:45:47.518Z,7.71
2017-11-07T02:48:17.135Z,7.46
2017-11-07T02:50:45.632Z,7.44
2017-11-07T02:53:13.992Z,7.42
2017-11-07T02:55:43.133Z,7.41
2017-11-07T02:58:11.491Z,7.26
2017-11-07T03:00:40.599Z,7.18
2017-11-07T03:03:09.781Z,7.15
2017-11-07T03:05:38.112Z,7.03
2017-11-07T03:08:06.456Z,6.66
2017-11-07T03:10:35.151Z,6.69
2017-11-07T03:13:04.179Z,6.87
2017-11-07T03:15:32.509Z,6.68
2017-11-07T03:18:01.367Z,6.74
2017-11-07T03:20:30.326Z,6.80
2017-11-07T03:22:58.946Z,6.67
2017-11-07T03:25:27.461Z,6.53
2017-11-07T03:27:56.588Z,6.47
2017-11-07T03:30:25.734Z,6.49
2017-11-07T03:32:55.032Z,6.76
2017-11-07T03:35:24.144Z,6.96
2017-11-07T03:37:52.490Z,6.74
2017-11-07T03:40:20.877Z,6.84
2017-11-07T03:42:49.218Z,6.64
2017-11-07T03:45:17.557Z,6.72
2017-11-07T03:47:45.942Z,6.41
2017-11-07T03:50:14.306Z,6.30
2017-11-07T03:52:43.242Z,6.59
2017-11-07T03:55:12.603Z,6.50
2017-11-07T03:57:41.837Z,6.33
2017-11-07T04:00:10.922Z,6.58
2017-11-07T04:02:39.283Z,6.24
2017-11-07T04:05:08.382Z,6.66
2017-11-07T04:07:39.189Z,6.66
2017-11-07T04:10:07.585Z,6.47
2017-11-07T04:12:37.502Z,6.50
2017-11-07T04:15:06.622Z,6.26
2017-11-07T04:17:35.153Z,6.62
2017-11-07T04:20:05.895Z,6.70
2017-11-07T04:22:35.134Z,6.70
2017-11-07T04:25:04.207Z,6.67
2017-11-07T04:27:33.308Z,6.49
2017-11-07T04:30:02.441Z,6.69
2017-11-07T04:32:30.832Z,6.34
2017-11-07T04:34:59.495Z,6.49
2017-11-07T04:37:27.987Z,6.44
2017-11-07T04:39:56.744Z,6.66
2017-11-07T04:42:25.855Z,6.96
2017-11-07T04:44:54.408Z,6.91
2017-11-07T04:47:23.537Z,6.77
2017-11-07T04:49:51.878Z,6.86
2017-11-07T04:52:20.731Z,6.95
2017-11-07T04:54:49.726Z,6.98
2017-11-07T04:57:19.453Z,6.52
2017-11-07T04:59:47.786Z,6.14
2017-11-07T05:02:16.745Z,6.41
2017-11-07T05:04:45.101Z,6.53
2017-11-07T05:07:13.522Z,6.39
2017-11-07T05:09:42.986Z,6.11
2017-11-07T05:12:11.318Z,6.03
2017-11-07T05:14:39.663Z,6.28
2017-11-07T05:17:08.033Z,6.25
2017-11-07T05:19:36.404Z,6.31
2017-11-07T05:22:04.734Z,6.06
2017-11-07T05:24:34.060Z,6.08
2017-11-07T05:27:02.399Z,6.29
2017-11-07T05:29:32.075Z,6.22
2017-11-07T05:32:00.459Z,6.33
2017-11-07T05:34:28.800Z,6.40
2017-11-07T05:36:57.749Z,6.59
2017-11-07T05:39:26.889Z,6.66
2017-11-07T05:41:55.686Z,6.64
2017-11-07T05:44:24.884Z,6.70
2017-11-07T05:46:53.533Z,6.73
2017-11-07T05:49:22.640Z,6.25
2017-11-07T05:51:50.976Z,6.14
2017-11-07T05:54:19.440Z,6.06
2017-11-07T05:56:48.650Z,6.00
2017-11-07T05:59:18.598Z,5.85
2017-11-07T06:01:48.644Z,5.92
2017-11-07T06:04:17.805Z,6.13
2017-11-07T06:06:46.912Z,6.17
2017-11-07T06:09:15.517Z,5.94
2017-11-07T06:11:43.888Z,5.83
2017-11-07T06:14:14.155Z,6.03
2017-11-07T06:16:43.493Z,6.24
2017-11-07T06:19:12.624Z,6.01
2017-11-07T06:21:40.983Z,6.00
2017-11-07T06:24:10.206Z,5.67
2017-11-07T06:26:38.547Z,5.58
2017-11-07T06:29:06.893Z,5.72
2017-11-07T06:31:35.423Z,5.75
2017-11-07T06:34:04.533Z,5.86
2017-11-07T06:36:32.874Z,5.95
2017-11-07T06:39:01.255Z,5.87
2017-11-07T06:41:29.978Z,6.12
2017-11-07T06:43:58.589Z,6.28
2017-11-07T06:46:26.947Z,6.06
2017-11-07T06:48:55.282Z,5.91
2017-11-07T06:51:24.410Z,5.95
2017-11-07T06:53:52.942Z,6.14
2017-11-07T06:56:21.353Z,5.87
2017-11-07T06:58:51.218Z,5.92
2017-11-07T07:01:19.597Z,5.91
2017-11-07T07:03:49.003Z,6.00
2017-11-07T07:06:17.350Z,6.53
2017-11-07T07:08:47.394Z,6.38
2017-11-07T07:11:15.720Z,6.05
2017-11-07T07:13:45.080Z,6.42
2017-11-07T07:16:13.525Z,6.61
2017-11-07T07:18:41.866Z,6.64
2017-11-07T07:21:10.229Z,6.60
2017-11-07T07:23:40.087Z,6.77
2017-11-07T07:26:08.471Z,6.97
2017-11-07T07:28:36.844Z,7.11
2017-11-07T07:31:05.998Z,7.14
2017-11-07T07:33:34.355Z,7.07
2017-11-07T07:36:02.990Z,7.33
2017-11-07T07:38:32.304Z,7.61
2017-11-07T07:41:00.658Z,7.54
2017-11-07T07:43:29.010Z,7.63
2017-11-07T07:45:57.401Z,7.83
2017-11-07T07:48:25.756Z,7.68
2017-11-07T07:50:55.630Z,7.48
2017-11-07T07:53:25.457Z,7.23
2017-11-07T07:55:55.221Z,7.14
2017-11-07T07:58:25.022Z,7.03
2017-11-07T08:00:54.131Z,7.26
2017-11-07T08:03:23.933Z,7.00
2017-11-07T08:05:52.293Z,7.07
2017-11-07T08:08:21.585Z,6.89
2017-11-07T08:10:50.229Z,7.29
2017-11-07T08:13:18.767Z,7.16
2017-11-07T08:15:47.443Z,6.74
2017-11-07T08:18:15.823Z,6.49
2017-11-07T08:20:44.197Z,6.62
2017-11-07T08:23:13.698Z,6.81
2017-11-07T08:25:42.062Z,7.02
2017-11-07T08:28:11.243Z,7.41
2017-11-07T08:30:41.165Z,7.16
2017-11-07T08:33:11.107Z,7.18
2017-11-07T08:35:40.250Z,7.27
2017-11-07T08:38:08.636Z,7.18
2017-11-07T08:40:36.999Z,6.60
2017-11-07T08:43:06.020Z,6.87
2017-11-07T08:45:36.214Z,6.70
2017-11-07T08:48:04.652Z,6.60
2017-11-07T08:50:33.034Z,6.91
2017-11-07T08:53:01.404Z,7.35
2017-11-07T08:55:30.799Z,7.09
2017-11-07T08:57:59.997Z,6.27
2017-11-07T09:00:29.397Z,6.62
2017-11-07T09:02:57.803Z,7.18
2017-11-07T09:05:26.176Z,7.40
2017-11-07T09:07:54.852Z,7.38
2017-11-07T09:10:23.337Z,7.50
2017-11-07T09:12:52.652Z,7.40
2017-11-07T09:15:21.058Z,7.79
2017-11-07T09:17:49.791Z,8.11
2017-11-07T09:20:19.187Z,8.03
2017-11-07T09:22:48.522Z,7.42
2017-11-07T09:25:16.876Z,7.11
2017-11-07T09:27:45.244Z,7.41
2017-11-07T09:30:13.831Z,7.51
2017-11-07T09:32:42.293Z,7.83
2017-11-07T09:35:10.672Z,7.72
2017-11-07T09:37:39.064Z,8.06
2017-11-07T09:40:07.414Z,8.43
2017-11-07T09:42:35.822Z,8.00
2017-11-07T09:45:04.274Z,8.17
2017-11-07T09:47:32.636Z,8.05
2017-11-07T09:50:00.996Z,8.22
2017-11-07T09:52:30.367Z,8.14
2017-11-07T09:54:59.551Z,8.17
2017-11-07T09:57:28.370Z,8.30
2017-11-07T09:59:57.669Z,8.62
2017-11-07T10:02:26.077Z,8.79
2017-11-07T10:04:54.422Z,8.98
2017-11-07T10:07:23.552Z,9.13
2017-11-07T10:09:52.114Z,8.69
2017-11-07T10:12:21.263Z,8.33
2017-11-07T10:14:50.285Z,8.64
2017-11-07T10:17:18.633Z,8.64
2017-11-07T10:19:48.283Z,8.28
2017-11-07T10:22:18.406Z,8.63
2017-11-07T10:24:47.504Z,8.73
2017-11-07T10:27:16.680Z,8.44
2017-11-07T10:29:45.238Z,8.23
2017-11-07T10:32:13.672Z,8.25
2017-11-07T10:34:42.078Z,8.44
2017-11-07T10:37:10.722Z,8.96
2017-11-07T10:39:40.868Z,8.79
2017-11-07T10:42:09.487Z,8.48
2017-11-07T10:44:38.563Z,8.08
2017-11-07T10:47:06.961Z,8.51
2017-11-07T10:49:36.122Z,9.03
2017-11-07T10:52:04.513Z,9.01
2017-11-07T10:54:32.961Z,9.04
2017-11-07T10:57:01.825Z,8.72
2017-11-07T10:59:30.353Z,8.33
2017-11-07T11:01:58.828Z,8.54
2017-11-07T11:04:28.632Z,8.82
2017-11-07T11:06:57.765Z,8.94
2017-11-07T11:09:27.730Z,9.09
2017-11-07T11:11:56.093Z,8.95
2017-11-07T11:14:24.570Z,8.96
2017-11-07T11:16:53.321Z,9.19
2017-11-07T11:19:22.221Z,8.89
2017-11-07T11:21:51.223Z,8.98
2017-11-07T11:24:20.371Z,9.31
2017-11-07T11:26:49.467Z,9.30
2017-11-07T11:29:17.843Z,9.10
2017-11-07T11:31:46.325Z,9.43
2017-11-07T11:34:15.705Z,9.59
2017-11-07T11:36:44.279Z,9.75
2017-11-07T11:39:12.670Z,9.28
2017-11-07T11:41:41.316Z,9.37
2017-11-07T11:44:10.056Z,9.47
2017-11-07T11:46:38.672Z,9.09
2017-11-07T11:49:07.799Z,8.97
2017-11-07T11:51:36.308Z,9.06
2017-11-07T11:54:05.400Z,9.42
2017-11-07T11:56:35.449Z,9.36
2017-11-07T11:59:04.588Z,9.36
2017-11-07T12:01:33.008Z,9.47
2017-11-07T12:04:01.361Z,9.85
2017-11-07T12:06:30.057Z,9.72
2017-11-07T12:08:58.475Z,9.87
2017-11-07T12:11:27.686Z,9.95
2017-11-07T12:13:56.769Z,9.78
2017-11-07T12:16:25.868Z,9.80
2017-11-07T12:18:54.246Z,9.75
2017-11-07T12:21:22.626Z,9.82
2017-11-07T12:23:51.798Z,9.72
2017-11-07T12:26:20.182Z,9.86
2017-11-07T12:28:48.858Z,9.94
2017-11-07T12:31:17.780Z,9.88
2017-11-07T12:33:46.238Z,10.30
2017-11-07T12:36:14.712Z,10.59
2017-11-07T12:38:43.136Z,10.40
2017-11-07T12:41:12.608Z,10.61
2017-11-07T12:43:40.978Z,10.69
2017-11-07T12:46:09.805Z,10.35
2017-11-07T12:48:38.178Z,10.19
2017-11-07T12:51:24.578Z,9.80
2017-11-07T12:53:54.617Z,9.97
2017-11-07T12:56:23.045Z,10.21
2017-11-07T12:58:51.465Z,10.25
2017-11-07T13:01:20.627Z,9.96
2017-11-07T13:03:49.242Z,9.68
2017-11-07T13:06:18.032Z,9.59
2017-11-07T13:08:46.425Z,9.92
2017-11-07T13:11:15.553Z,9.68
2017-11-07T13:13:45.263Z,9.50
2017-11-07T13:16:14.614Z,10.00
2017-11-07T13:18:42.973Z,10.34
2017-11-07T13:21:12.295Z,10.91
2017-11-07T13:23:40.686Z,11.29
2017-11-07T13:26:10.091Z,10.89
2017-11-07T13:28:38.470Z,11.08
2017-11-07T13:31:07.629Z,11.00
2017-11-07T13:33:37.496Z,11.12
2017-11-07T13:36:06.071Z,11.16
2017-11-07T13:38:35.178Z,10.81
2017-11-07T13:41:04.299Z,10.94
2017-11-07T13:43:32.682Z,11.21
2017-11-07T13:46:01.007Z,11.31
2017-11-07T13:48:30.106Z,11.27
2017-11-07T13:50:59.300Z,10.85
2017-11-07T13:53:27.653Z,10.26
2017-11-07T13:55:56.819Z,9.97
2017-11-07T13:58:25.241Z,9.53
2017-11-07T14:00:53.566Z,9.69
2017-11-07T14:03:22.118Z,9.89
2017-11-07T14:05:50.496Z,10.45
2017-11-07T14:08:20.313Z,11.51
2017-11-07T14:10:48.993Z,13.41
2017-11-07T14:13:17.575Z,14.50
2017-11-07T14:15:46.481Z,15.45
2017-11-07T14:18:14.848Z,13.71
2017-11-07T14:20:44.153Z,13.94
2017-11-07T14:23:13.036Z,13.85
2017-11-07T14:25:42.205Z,13.27
2017-11-07T14:28:10.582Z,11.83
2017-11-07T14:30:38.949Z,11.56
2017-11-07T14:33:07.550Z,11.49
2017-11-07T14:35:35.931Z,11.07
2017-11-07T14:38:04.816Z,10.47
2017-11-07T14:40:33.169Z,9.84
2017-11-07T14:43:01.619Z,9.86
2017-11-07T14:45:30.750Z,9.78
2017-11-07T14:47:59.122Z,9.23
2017-11-07T14:50:27.737Z,8.96
2017-11-07T14:52:56.087Z,9.02
2017-11-07T14:55:24.432Z,9.00
2017-11-07T14:57:53.467Z,9.08
2017-11-07T15:00:22.028Z,9.05
2017-11-07T15:02:51.134Z,9.07
2017-11-07T15:05:20.710Z,9.09
2017-11-07T15:07:49.057Z,9.20
2017-11-07T15:10:17.389Z,9.30
2017-11-07T15:12:46.869Z,8.46
2017-11-07T15:15:16.455Z,8.31
2017-11-07T15:17:44.808Z,8.32
2017-11-07T15:20:13.191Z,8.47
2017-11-07T15:22:41.560Z,8.78
2017-11-07T15:25:09.918Z,8.85
2017-11-07T15:27:38.557Z,9.17
2017-11-07T15:30:06.881Z,9.33
2017-11-07T15:32:35.243Z,9.35
2017-11-07T15:35:05.036Z,8.95
2017-11-07T15:37:35.535Z,9.13
2017-11-07T15:40:03.914Z,9.22
2017-11-07T15:42:32.294Z,9.19
2017-11-07T15:45:02.042Z,8.89
2017-11-07T15:47:30.414Z,8.75
2017-11-07T15:49:59.971Z,8.76
2017-11-07T15:52:29.588Z,9.14
2017-11-07T15:54:58.092Z,9.33
2017-11-07T15:57:26.886Z,9.04
2017-11-07T15:59:56.002Z,8.87
2017-11-07T16:02:24.318Z,8.93
2017-11-07T16:04:53.516Z,8.86
2017-11-07T16:07:21.880Z,8.78
2017-11-07T16:09:51.037Z,8.87
2017-11-07T16:12:19.586Z,8.76
2017-11-07T16:14:47.961Z,8.96
2017-11-07T16:17:16.346Z,8.98
2017-11-07T16:19:45.076Z,8.64
2017-11-07T16:22:14.667Z,8.67
2017-11-07T16:24:43.002Z,8.77
2017-11-07T16:27:11.423Z,8.78
2017-11-07T16:29:39.792Z,8.97
2017-11-07T16:32:09.899Z,8.88
2017-11-07T16:34:38.516Z,8.62
2017-11-07T16:37:06.865Z,8.72
2017-11-07T16:39:35.238Z,8.42
2017-11-07T16:42:04.015Z,8.68
2017-11-07T16:44:32.363Z,8.60
2017-11-07T16:47:01.502Z,8.54
2017-11-07T16:49:30.550Z,8.74
2017-11-07T16:51:59.119Z,8.59
2017-11-07T16:54:27.477Z,8.77
2017-11-07T16:56:56.263Z,8.70
2017-11-07T16:59:25.450Z,8.53
2017-11-07T17:01:53.806Z,8.38
2017-11-07T17:04:22.945Z,8.35
2017-11-07T17:06:51.913Z,8.60
2017-11-07T17:09:21.234Z,8.49
2017-11-07T17:11:50.349Z,8.43
2017-11-07T17:14:18.695Z,8.58
2017-11-07T17:16:48.557Z,8.50
2017-11-07T17:19:17.007Z,8.49
2017-11-07T17:21:45.606Z,8.38
2017-11-07T17:24:13.988Z,8.36
2017-11-07T17:26:42.395Z,8.52
2017-11-07T17:29:10.996Z,8.73
2017-11-07T17:31:40.998Z,8.84
2017-11-07T17:34:09.382Z,8.54
2017-11-07T17:36:38.530Z,8.46
2017-11-07T17:39:06.887Z,8.36
2017-11-07T17:41:35.407Z,8.37
2017-11-07T17:44:05.013Z,8.65
2017-11-07T17:46:34.181Z,8.79
2017-11-07T17:49:03.434Z,9.04
2017-11-07T17:51:32.119Z,9.09
2017-11-07T17:54:01.367Z,9.16
2017-11-07T17:56:29.778Z,9.19
2017-11-07T17:58:59.054Z,9.12
2017-11-07T18:01:28.749Z,9.00
2017-11-07T18:03:58.142Z,9.18
2017-11-07T18:06:28.405Z,9.14
2017-11-07T18:08:58.541Z,9.14
2017-11-07T18:11:26.666Z,9.22
2017-11-07T18:13:55.046Z,9.26
2017-11-07T18:16:24.234Z,9.28
2017-11-07T18:18:53.381Z,9.32
2017-11-07T18:21:22.497Z,9.25
2017-11-07T18:23:51.086Z,9.17
2017-11-07T18:26:19.909Z,9.26
2017-11-07T18:28:49.063Z,9.12
2017-11-07T18:31:17.469Z,9.12
2017-11-07T18:33:46.385Z,8.83
2017-11-07T18:36:15.678Z,8.79
2017-11-07T18:38:44.028Z,8.86
2017-11-07T18:41:15.612Z,8.75
2017-11-07T18:43:44.251Z,8.97
2017-11-07T18:46:12.852Z,8.99
2017-11-07T18:48:41.320Z,8.99
2017-11-07T18:51:09.897Z,8.97
2017-11-07T18:53:38.242Z,9.08
2017-11-07T18:56:07.066Z,9.08
2017-11-07T18:58:35.802Z,9.12
2017-11-07T19:01:04.936Z,9.12
2017-11-07T19:03:33.315Z,9.32
2017-11-07T19:06:03.598Z,9.30
2017-11-07T19:08:32.014Z,9.26
2017-11-07T19:11:00.517Z,9.46
2017-11-07T19:13:28.881Z,9.35
2017-11-07T19:15:57.248Z,9.18
2017-11-07T19:18:26.396Z,9.45
2017-11-07T19:20:54.762Z,9.34
2017-11-07T19:23:23.113Z,9.33
2017-11-07T19:25:51.524Z,9.12
2017-11-07T19:28:20.294Z,9.18
2017-11-07T19:30:49.919Z,9.28
2017-11-07T19:33:18.573Z,9.30
2017-11-07T19:35:46.920Z,9.36
2017-11-07T19:38:15.277Z,9.31
2017-11-07T19:40:44.434Z,9.20
2017-11-07T19:43:13.626Z,9.14
2017-11-07T19:45:41.989Z,9.10
2017-11-07T19:48:10.840Z,9.05
2017-11-07T19:50:40.256Z,8.91
2017-11-07T19:53:10.010Z,8.89
2017-11-07T19:55:39.711Z,8.83
2017-11-07T19:58:09.005Z,8.75
2017-11-07T20:00:38.297Z,8.89
2017-11-07T20:03:06.682Z,9.00
2017-11-07T20:05:35.057Z,9.10
2017-11-07T20:08:03.454Z,9.06
2017-11-07T20:10:32.911Z,9.07
2017-11-07T20:13:01.614Z,9.05
2017-11-07T20:15:29.957Z,8.97
2017-11-07T20:17:58.421Z,8.95
2017-11-07T20:20:27.157Z,9.00
2017-11-07T20:22:56.331Z,9.07
2017-11-07T20:25:24.785Z,9.12
2017-11-07T20:27:53.878Z,9.08
2017-11-07T20:30:23.041Z,9.07
2017-11-07T20:32:52.143Z,9.09
2017-11-07T20:35:21.454Z,9.15
2017-11-07T20:37:49.823Z,9.17
2017-11-07T20:40:18.255Z,9.20
2017-11-07T20:42:47.654Z,9.14
2017-11-07T20:45:16.037Z,9.21
2017-11-07T20:47:44.450Z,9.25
2017-11-07T20:50:12.800Z,9.16
2017-11-07T20:52:41.835Z,9.03
2017-11-07T20:55:10.749Z,8.99
2017-11-07T20:57:40.808Z,9.19
2017-11-07T21:00:09.192Z,9.28
2017-11-07T21:02:37.828Z,9.36
2017-11-07T21:05:06.856Z,9.64
2017-11-07T21:07:36.160Z,9.64
2017-11-07T21:10:04.826Z,9.44
2017-11-07T21:12:33.252Z,9.43
2017-11-07T21:15:01.642Z,9.44
2017-11-07T21:17:30.531Z,9.45
2017-11-07T21:19:58.887Z,9.55
2017-11-07T21:22:28.452Z,9.59
2017-11-07T21:24:57.020Z,9.48
2017-11-07T21:27:25.379Z,9.63
2017-11-07T21:29:55.851Z,9.53
2017-11-07T21:32:24.224Z,9.48
2017-11-07T21:34:53.084Z,9.31
2017-11-07T21:37:22.265Z,9.29
2017-11-07T21:39:50.643Z,9.41
2017-11-07T21:42:19.101Z,9.20
2017-11-07T21:44:47.459Z,9.25
2017-11-07T21:47:16.425Z,9.38
2017-11-07T21:49:44.787Z,9.46
2017-11-07T21:52:13.943Z,9.46
2017-11-07T21:54:43.157Z,9.49
2017-11-07T21:57:11.982Z,9.53
2017-11-07T21:59:40.341Z,9.48
2017-11-07T22:02:08.743Z,9.45
2017-11-07T22:04:37.092Z,9.59
2017-11-07T22:07:05.630Z,9.67
2017-11-07T22:09:34.169Z,9.83
2017-11-07T22:12:03.576Z,9.83
2017-11-07T22:14:35.147Z,9.76
2017-11-07T22:17:13.219Z,9.82
2017-11-07T22:19:41.846Z,9.87
2017-11-07T22:22:10.782Z,9.65
2017-11-07T22:24:40.919Z,9.66
2017-11-07T22:27:10.762Z,9.71
2017-11-07T22:29:40.676Z,9.78
2017-11-07T22:32:09.581Z,9.86
2017-11-07T22:34:37.943Z,9.86
2017-11-07T22:37:07.059Z,9.90
2017-11-07T22:39:38.865Z,9.77
2017-11-07T22:42:07.255Z,9.78
2017-11-07T22:44:35.585Z,9.76
2017-11-07T22:47:04.112Z,9.71
2017-11-07T22:49:32.444Z,9.84
2017-11-07T22:52:00.854Z,9.79
2017-11-07T22:54:29.268Z,9.92
2017-11-07T22:56:58.365Z,9.98
2017-11-07T22:59:27.237Z,9.93
2017-11-07T23:01:55.635Z,9.82
2017-11-07T23:04:25.448Z,9.76
2017-11-07T23:06:54.859Z,9.97
2017-11-07T23:09:23.330Z,9.66
2017-11-07T23:11:54.083Z,9.61
2017-11-07T23:14:22.440Z,9.78
2017-11-07T23:16:50.854Z,9.81
2017-11-07T23:19:19.852Z,9.79
2017-11-07T23:21:48.581Z,9.84
2017-11-07T23:24:17.061Z,9.87
2017-11-07T23:26:45.473Z,9.94
2017-11-07T23:29:14.853Z,9.76
2017-11-07T23:31:44.450Z,9.83
2017-11-07T23:34:12.805Z,9.77
2017-11-07T23:36:41.955Z,9.79
2017-11-07T23:39:11.006Z,9.79
2017-11-07T23:41:40.163Z,9.71
2017-11-07T23:44:08.526Z,9.72
2017-11-07T23:46:36.982Z,9.82
2017-11-07T23:49:05.312Z,9.73
2017-11-07T23:51:34.613Z,9.70
2017-11-07T23:54:03.761Z,9.84
2017-11-07T23:56:32.264Z,9.93
2017-11-07T23:59:00.644Z,9.71
